Air Navigation Services of Czech Republic
Airport: LKKV Updated:  22.06.2017 23:42:07  UTC
 METAR LKKV 22.06. 23:00 ...
METAR LKKV 222300Z VRB06KT 9999 -SHRA VCTS SCT060CB 15/14 Q1013 RMK REG QNH 1007=
 TAF LKKV 22.06. 23:00 ...
TAF LKKV 222300Z 2300/2406 26012KT 9999 SCT030      TEMPO 2300/2304 7000 SHRA BKN020      PROB30 TEMPO 2300/2303 27016G34KT 3000 TSRA BKN012CB      BECMG 2318/2320 CAVOK=
 WARNING LKKV 22.06. 21:39 ...
LKKV AD WRNG 4 VALID 222145/222345 TS FCST NC=